Airfield :
LOGIN :

Register | Disclaimer

   EN    FR    IT 

 










Legend :    VFR   Marginal VFR   IFR   Intensive IFR   Very Intensive IFR
Visi :
Ceiling :
>= 8 km
>= 3000ft
5 to 8 km
1000 to 3000 ft
1500m to 5 km
500 to 1000 ft
800 to 1500m
200 to 500 ft
< 800m
< 200 ft
Symbols :   Thunderstorms  Fog  Heavy snow  Heavy precipitations  Wind > 20 kt
SIGMETs :     Misc.  Thunderstorms  Icing  Turbulence  Mountain Waves  Volcanic Ashes







- Airport Elevation : 863 ft
- IATA code : ZAZ


LEZG - Zaragoza Aragon

CURRENT METAR :
  • 222330Z 08010KT 050V110 9999 FEW060 30/14 Q1017

EXPIRED METARs :
  • 222300Z 09008KT 9999 FEW060 30/14 Q1017
  • 222230Z 10008KT 070V140 9999 FEW060 31/13 Q1017
  • 222200Z 10007KT 070V130 CAVOK 31/14 Q1016
  • 222130Z 09008KT CAVOK 32/14 Q1016
  • 222100Z 10008KT 070V130 CAVOK 32/13 Q1016

TAF COR TAF LEZG
Valid from the 23 at 00:00 until the 24 at 00:00 UTC


222328Z 2300/2324 30006KT 9999 FEW050 TX40/2314Z TN23/2306Z
BECMG 2302/2304 30010KT
BECMG 2311/2313 VRB05KT
PROB30
TEMPO 2316/2319 11010KT
BECMG 2319/2321 30016KT
No reported NOTAMs for that airfield.



MET'MAP, your aeronautical weather chart ! - Copyright ORBIFLY December 2007 - Disclaimer

ORBIFLY MET'MAP TEAM :

Programming & Development : Alexandra Zaïnal
Concept & Development : Baudouin d'Aumeries
Co-Development & Prog : Marc-Olivier Méhu
Technical & hardware support : Manuel Goepfert

Contact : metmap@orbifly.com




SOURCES & CREDITS :

   NOAA